Terminal Aerodrome Forecast
Issued by NWS

Home | Current Version | Previous Version | Text Only | Print | Product List | Glossary On
Versions: 1 2 3 4 5 6 7 8 9 10 11 12 13 14 15 16 17 18 19 20 21 22 23 24
000
FTUS41 KCLE 011740
TAFFDY
TAF
KFDY 011740Z 0118/0218 18008KT P6SM BKN040
      TEMPO 0119/0123 5SM -SHRA BKN025
     FM020200 22004KT P6SM SCT012 BKN050
      TEMPO 0209/0213 3SM BR
     FM021400 26008KT P6SM BKN018=

USA.gov is the U.S. government's official web portal to all federal, state and local government web resources and services.